createdAt,value
2023-06-01T00:00:26.458Z,95292.00
2023-06-01T00:01:26.442Z,95292.00
2023-06-01T00:02:26.494Z,95292.00
2023-06-01T00:03:26.684Z,95294.00
2023-06-01T00:04:26.443Z,95294.00
2023-06-01T00:05:26.422Z,95294.00
2023-06-01T00:06:26.410Z,95292.00
2023-06-01T00:07:26.408Z,95294.00
2023-06-01T00:08:26.395Z,95296.00
2023-06-01T00:09:26.392Z,95296.00
2023-06-01T00:10:26.383Z,95298.00
2023-06-01T00:11:26.411Z,95296.00
2023-06-01T00:12:26.441Z,95294.00
2023-06-01T00:13:26.489Z,95292.00
2023-06-01T00:14:26.536Z,95291.00
2023-06-01T00:15:26.593Z,95291.00
2023-06-01T00:16:26.669Z,95291.00
2023-06-01T00:17:26.716Z,95292.00
2023-06-01T00:18:26.780Z,95294.00
2023-06-01T00:19:26.815Z,95294.00
2023-06-01T00:20:26.870Z,95291.00
2023-06-01T00:21:26.986Z,95291.00
2023-06-01T00:22:26.971Z,95292.00
2023-06-01T00:23:27.051Z,95289.00
2023-06-01T00:24:27.117Z,95292.00
2023-06-01T00:25:27.129Z,95291.00
2023-06-01T00:26:27.190Z,95287.00
2023-06-01T00:27:27.235Z,95291.00
2023-06-01T00:28:27.303Z,95285.00
2023-06-01T00:29:27.337Z,95289.00
2023-06-01T00:30:27.377Z,95289.00
2023-06-01T00:31:27.498Z,95289.00
2023-06-01T00:32:27.505Z,95292.00
2023-06-01T00:33:27.554Z,95292.00
2023-06-01T00:34:27.605Z,95294.00
2023-06-01T00:35:27.646Z,95291.00
2023-06-01T00:36:27.700Z,95294.00
2023-06-01T00:37:27.751Z,95292.00
2023-06-01T00:38:27.815Z,95292.00
2023-06-01T00:39:27.857Z,95292.00
2023-06-01T00:40:27.907Z,95292.00
2023-06-01T00:41:27.954Z,95291.00
2023-06-01T00:42:28.004Z,95296.00
2023-06-01T00:43:28.071Z,95291.00
2023-06-01T00:44:28.118Z,95291.00
2023-06-01T00:45:28.174Z,95294.00
2023-06-01T00:46:28.261Z,95291.00
2023-06-01T00:47:28.323Z,95292.00
2023-06-01T00:48:28.328Z,95292.00
2023-06-01T00:49:28.376Z,95291.00
2023-06-01T00:50:28.423Z,95291.00
2023-06-01T00:51:28.483Z,95289.00
2023-06-01T00:52:28.553Z,95291.00
2023-06-01T00:53:28.604Z,95289.00
2023-06-01T00:54:28.662Z,95289.00
2023-06-01T00:55:28.720Z,95285.00
2023-06-01T00:56:28.800Z,95287.00
2023-06-01T00:57:28.836Z,95287.00
2023-06-01T00:58:28.883Z,95285.00
2023-06-01T00:59:28.933Z,95285.00
2023-06-01T01:00:28.990Z,95285.00
2023-06-01T01:01:29.064Z,95285.00
2023-06-01T01:02:29.120Z,95287.00
2023-06-01T01:03:29.154Z,95287.00
2023-06-01T01:04:29.254Z,95285.00
2023-06-01T01:05:29.298Z,95289.00
2023-06-01T01:06:29.299Z,95289.00
2023-06-01T01:07:29.353Z,95291.00
2023-06-01T01:08:29.407Z,95292.00
2023-06-01T01:09:29.463Z,95291.00
2023-06-01T01:10:29.525Z,95292.00
2023-06-01T01:11:29.570Z,95291.00
2023-06-01T01:12:29.612Z,95292.00
2023-06-01T01:13:29.665Z,95291.00
2023-06-01T01:14:29.711Z,95294.00
2023-06-01T01:15:29.771Z,95292.00
2023-06-01T01:16:29.909Z,95291.00
2023-06-01T01:17:29.900Z,95294.00
2023-06-01T01:18:29.944Z,95292.00
2023-06-01T01:19:29.983Z,95294.00
2023-06-01T01:20:30.065Z,95294.00
2023-06-01T01:21:30.142Z,95294.00
2023-06-01T01:22:30.168Z,95292.00
2023-06-01T01:23:30.202Z,95291.00
2023-06-01T01:24:30.243Z,95292.00
2023-06-01T01:25:30.387Z,95294.00
2023-06-01T01:26:30.348Z,95292.00
2023-06-01T01:27:30.399Z,95294.00
2023-06-01T01:28:30.461Z,95294.00
2023-06-01T01:29:30.516Z,95291.00
2023-06-01T01:30:30.569Z,95292.00
2023-06-01T01:31:30.687Z,95294.00
2023-06-01T01:32:30.701Z,95294.00
2023-06-01T01:33:30.740Z,95296.00
2023-06-01T01:34:30.791Z,95294.00
2023-06-01T01:35:30.839Z,95292.00
2023-06-01T01:36:30.897Z,95292.00
2023-06-01T01:37:30.956Z,95294.00
2023-06-01T01:38:31.024Z,95294.00
2023-06-01T01:39:31.084Z,95294.00
2023-06-01T01:40:31.132Z,95294.00
2023-06-01T01:41:31.190Z,95294.00
2023-06-01T01:42:31.258Z,95294.00
2023-06-01T01:43:31.314Z,95292.00
2023-06-01T01:44:31.372Z,95291.00
2023-06-01T01:45:31.424Z,95294.00
2023-06-01T01:46:31.577Z,95292.00
2023-06-01T01:47:31.717Z,95294.00
2023-06-01T01:48:31.630Z,95292.00
2023-06-01T01:49:31.670Z,95294.00
2023-06-01T01:50:31.711Z,95294.00
2023-06-01T01:51:31.789Z,95296.00
2023-06-01T01:52:31.832Z,95298.00
2023-06-01T01:53:31.897Z,95296.00
2023-06-01T01:54:31.951Z,95298.00
2023-06-01T01:55:32.011Z,95300.00
2023-06-01T01:56:32.069Z,95298.00
2023-06-01T01:57:32.131Z,95298.00
2023-06-01T01:58:32.191Z,95298.00
2023-06-01T01:59:32.242Z,95298.00
2023-06-01T02:00:32.375Z,95298.00
2023-06-01T02:01:33.435Z,95298.00
2023-06-01T02:02:32.455Z,95298.00
2023-06-01T02:03:32.469Z,95298.00
2023-06-01T02:04:32.325Z,95298.00
2023-06-01T02:05:32.321Z,95300.00
2023-06-01T02:06:32.308Z,95298.00
2023-06-01T02:07:32.307Z,95300.00
2023-06-01T02:08:32.302Z,95300.00
2023-06-01T02:09:32.292Z,95300.00
2023-06-01T02:10:32.282Z,95296.00
2023-06-01T02:11:32.276Z,95298.00
2023-06-01T02:12:32.265Z,95296.00
2023-06-01T02:13:32.291Z,95298.00
2023-06-01T02:14:32.252Z,95298.00
2023-06-01T02:15:32.248Z,95296.00
2023-06-01T02:16:32.280Z,95296.00
2023-06-01T02:17:32.291Z,95296.00
2023-06-01T02:18:32.229Z,95294.00
2023-06-01T02:19:32.217Z,95292.00
2023-06-01T02:20:32.214Z,95292.00
2023-06-01T02:21:32.323Z,95294.00
2023-06-01T02:22:32.198Z,95296.00
2023-06-01T02:23:32.732Z,95296.00
2023-06-01T02:24:32.319Z,95298.00
2023-06-01T02:25:32.385Z,95298.00
2023-06-01T02:26:32.468Z,95300.00
2023-06-01T02:27:32.511Z,95302.00
2023-06-01T02:28:32.571Z,95302.00
2023-06-01T02:29:32.637Z,95302.00
2023-06-01T02:30:32.675Z,95302.00
2023-06-01T02:31:32.756Z,95302.00
2023-06-01T02:32:32.802Z,95302.00
2023-06-01T02:33:32.863Z,95296.00
2023-06-01T02:34:32.948Z,95296.00
2023-06-01T02:35:32.993Z,95294.00
2023-06-01T02:36:33.149Z,95296.00
2023-06-01T02:37:33.114Z,95294.00
2023-06-01T02:38:33.196Z,95294.00
2023-06-01T02:39:33.225Z,95294.00
2023-06-01T02:40:33.291Z,95294.00
2023-06-01T02:41:33.360Z,95296.00
2023-06-01T02:42:33.427Z,95296.00
2023-06-01T02:43:33.513Z,95296.00
2023-06-01T02:44:33.549Z,95298.00
2023-06-01T02:45:33.854Z,95300.00
2023-06-01T02:46:33.786Z,95294.00
2023-06-01T02:47:33.753Z,95298.00
2023-06-01T02:48:33.802Z,95296.00
2023-06-01T02:49:33.853Z,95296.00
2023-06-01T02:50:33.914Z,95294.00
2023-06-01T02:51:33.986Z,95298.00
2023-06-01T02:52:34.037Z,95300.00
2023-06-01T02:53:34.106Z,95298.00
2023-06-01T02:54:34.182Z,95300.00
2023-06-01T02:55:34.228Z,95296.00
2023-06-01T02:56:34.280Z,95298.00
2023-06-01T02:57:34.349Z,95298.00
2023-06-01T02:58:34.413Z,95296.00
2023-06-01T02:59:34.483Z,95294.00
2023-06-01T03:00:34.542Z,95294.00
2023-06-01T03:01:34.685Z,95294.00
2023-06-01T03:02:34.698Z,95298.00
2023-06-01T03:03:34.762Z,95294.00
2023-06-01T03:04:34.799Z,95294.00
2023-06-01T03:05:34.862Z,95294.00
2023-06-01T03:06:34.942Z,95292.00
2023-06-01T03:07:34.982Z,95294.00
2023-06-01T03:08:35.058Z,95292.00
2023-06-01T03:09:35.110Z,95292.00
2023-06-01T03:10:35.171Z,95292.00
2023-06-01T03:11:35.236Z,95294.00
2023-06-01T03:12:35.302Z,95294.00
2023-06-01T03:13:35.364Z,95294.00
2023-06-01T03:14:35.439Z,95292.00
2023-06-01T03:15:35.553Z,95294.00
2023-06-01T03:16:35.555Z,95294.00
2023-06-01T03:17:35.656Z,95292.00
2023-06-01T03:18:38.077Z,95294.00
2023-06-01T03:19:35.695Z,95296.00
2023-06-01T03:20:35.678Z,95296.00
2023-06-01T03:21:35.696Z,95298.00
2023-06-01T03:22:35.666Z,95298.00
2023-06-01T03:23:35.655Z,95296.00
2023-06-01T03:24:35.658Z,95298.00
2023-06-01T03:25:35.636Z,95298.00
2023-06-01T03:26:35.631Z,95296.00
2023-06-01T03:27:35.623Z,95296.00
2023-06-01T03:28:35.620Z,95296.00
2023-06-01T03:29:35.616Z,95296.00
2023-06-01T03:30:35.600Z,95294.00
2023-06-01T03:31:36.263Z,95294.00
2023-06-01T03:32:35.605Z,95294.00
2023-06-01T03:33:35.585Z,95294.00
2023-06-01T03:34:35.574Z,95292.00
2023-06-01T03:35:35.563Z,95292.00
2023-06-01T03:36:35.559Z,95294.00
2023-06-01T03:37:35.605Z,95294.00
2023-06-01T03:38:35.673Z,95292.00
2023-06-01T03:39:35.727Z,95294.00
2023-06-01T03:40:35.784Z,95296.00
2023-06-01T03:41:35.850Z,95298.00
2023-06-01T03:42:35.911Z,95298.00
2023-06-01T03:43:35.969Z,95298.00
2023-06-01T03:44:36.055Z,95296.00
2023-06-01T03:45:36.109Z,95296.00
2023-06-01T03:46:36.272Z,95294.00
2023-06-01T03:47:36.240Z,95294.00
2023-06-01T03:48:36.297Z,95292.00
2023-06-01T03:49:36.353Z,95294.00
2023-06-01T03:50:36.412Z,95296.00
2023-06-01T03:51:36.483Z,95296.00
2023-06-01T03:52:36.560Z,95296.00
2023-06-01T03:53:36.611Z,95300.00
2023-06-01T03:54:36.687Z,95298.00
2023-06-01T03:55:36.742Z,95300.00
2023-06-01T03:56:36.815Z,95298.00
2023-06-01T03:57:36.875Z,95300.00
2023-06-01T03:58:36.951Z,95300.00
2023-06-01T03:59:36.993Z,95298.00
2023-06-01T04:00:37.055Z,95300.00
2023-06-01T04:01:38.232Z,95300.00
2023-06-01T04:02:37.261Z,95296.00
2023-06-01T04:03:37.223Z,95300.00
2023-06-01T04:04:37.287Z,95300.00
2023-06-01T04:05:37.069Z,95302.00
2023-06-01T04:06:37.064Z,95300.00
2023-06-01T04:07:37.056Z,95302.00
2023-06-01T04:08:37.056Z,95304.00
2023-06-01T04:09:37.054Z,95304.00
2023-06-01T04:10:37.050Z,95304.00
2023-06-01T04:11:37.029Z,95304.00
2023-06-01T04:12:37.034Z,95304.00
2023-06-01T04:13:37.022Z,95304.00
2023-06-01T04:14:37.015Z,95304.00
2023-06-01T04:15:37.009Z,95304.00
2023-06-01T04:16:37.044Z,95306.00
2023-06-01T04:17:37.022Z,95302.00
2023-06-01T04:18:36.985Z,95306.00
2023-06-01T04:19:37.006Z,95304.00
2023-06-01T04:20:36.973Z,95304.00
2023-06-01T04:21:36.975Z,95304.00
2023-06-01T04:22:36.992Z,95304.00
2023-06-01T04:23:37.053Z,95306.00
2023-06-01T04:24:37.115Z,95302.00
2023-06-01T04:25:37.173Z,95304.00
2023-06-01T04:26:37.254Z,95304.00
2023-06-01T04:27:37.274Z,95302.00
2023-06-01T04:28:37.332Z,95304.00
2023-06-01T04:29:38.279Z,95304.00
2023-06-01T04:30:37.448Z,95304.00
2023-06-01T04:31:37.562Z,95306.00
2023-06-01T04:32:37.626Z,95306.00
2023-06-01T04:33:37.632Z,95306.00
2023-06-01T04:34:37.699Z,95304.00
2023-06-01T04:35:37.825Z,95306.00
2023-06-01T04:36:37.821Z,95304.00
2023-06-01T04:37:37.913Z,95308.00
2023-06-01T04:38:37.935Z,95304.00
2023-06-01T04:39:38.001Z,95302.00
2023-06-01T04:40:38.074Z,95304.00
2023-06-01T04:41:38.111Z,95302.00
2023-06-01T04:42:38.167Z,95300.00
2023-06-01T04:43:38.236Z,95304.00
2023-06-01T04:44:38.309Z,95304.00
2023-06-01T04:45:38.381Z,95302.00
2023-06-01T04:46:38.500Z,95302.00
2023-06-01T04:47:38.580Z,95304.00
2023-06-01T04:48:38.574Z,95304.00
2023-06-01T04:49:39.987Z,95304.00
2023-06-01T04:50:38.659Z,95306.00
2023-06-01T04:51:38.621Z,95308.00
2023-06-01T04:52:38.646Z,95306.00
2023-06-01T04:53:38.616Z,95306.00
2023-06-01T04:54:38.623Z,95304.00
2023-06-01T04:55:38.603Z,95304.00
2023-06-01T04:56:38.598Z,95304.00
2023-06-01T04:57:38.586Z,95302.00
2023-06-01T04:58:38.589Z,95302.00
2023-06-01T04:59:38.580Z,95300.00
2023-06-01T05:00:38.574Z,95298.00
2023-06-01T05:01:38.601Z,95296.00
2023-06-01T05:02:38.605Z,95300.00
2023-06-01T05:03:38.632Z,95300.00
2023-06-01T05:04:38.555Z,95296.00
2023-06-01T05:05:41.250Z,95298.00
2023-06-01T05:06:38.531Z,95296.00
2023-06-01T05:07:38.536Z,95298.00
2023-06-01T05:08:38.539Z,95296.00
2023-06-01T05:09:38.525Z,95298.00
2023-06-01T05:10:38.509Z,95300.00
2023-06-01T05:11:38.517Z,95296.00
2023-06-01T05:12:38.492Z,95296.00
2023-06-01T05:13:38.494Z,95296.00
2023-06-01T05:14:38.506Z,95298.00
2023-06-01T05:15:38.484Z,95296.00
2023-06-01T05:16:38.531Z,95296.00
2023-06-01T05:17:38.463Z,95296.00
2023-06-01T05:18:38.459Z,95294.00
2023-06-01T05:19:38.455Z,95294.00
2023-06-01T05:20:38.478Z,95294.00
2023-06-01T05:21:38.504Z,95294.00
2023-06-01T05:22:38.500Z,95294.00
2023-06-01T05:23:38.425Z,95294.00
2023-06-01T05:24:38.417Z,95294.00
2023-06-01T05:25:38.426Z,95292.00
2023-06-01T05:26:38.412Z,95289.00
2023-06-01T05:27:38.398Z,95292.00
2023-06-01T05:28:38.404Z,95291.00
2023-06-01T05:29:38.416Z,95291.00
2023-06-01T05:30:38.460Z,95289.00
2023-06-01T05:31:38.548Z,95287.00
2023-06-01T05:32:38.609Z,95287.00
2023-06-01T05:33:38.628Z,95287.00
2023-06-01T05:34:38.703Z,95287.00
2023-06-01T05:35:38.756Z,95289.00
2023-06-01T05:36:38.890Z,95287.00
2023-06-01T05:37:38.862Z,95289.00
2023-06-01T05:38:38.959Z,95285.00
2023-06-01T05:39:38.999Z,95285.00
2023-06-01T05:40:39.052Z,95287.00
2023-06-01T05:41:39.122Z,95285.00
2023-06-01T05:42:39.203Z,95285.00
2023-06-01T05:43:42.508Z,95287.00
2023-06-01T05:44:40.275Z,95285.00
2023-06-01T05:45:40.245Z,95285.00
2023-06-01T05:46:39.223Z,95285.00
2023-06-01T05:47:39.252Z,95283.00
2023-06-01T05:48:41.284Z,95283.00
2023-06-01T05:49:39.209Z,95283.00
2023-06-01T05:50:39.209Z,95289.00
2023-06-01T05:51:40.237Z,95281.00
2023-06-01T05:52:39.182Z,95281.00
2023-06-01T05:53:39.656Z,95285.00
2023-06-01T05:54:39.205Z,95283.00
2023-06-01T05:55:39.708Z,95283.00
2023-06-01T05:57:46.541Z,95279.00
2023-06-01T05:58:41.217Z,95279.00
2023-06-01T06:00:55.274Z,95279.00
2023-06-01T06:01:39.174Z,95277.00
2023-06-01T06:02:54.866Z,95277.00
2023-06-01T06:04:11.193Z,95277.00
2023-06-01T06:04:46.521Z,95279.00
2023-06-01T06:05:39.603Z,95275.00
2023-06-01T06:07:42.769Z,95275.00
2023-06-01T06:09:46.805Z,95273.00
2023-06-01T06:10:39.342Z,95277.00
2023-06-01T06:11:39.416Z,95277.00
2023-06-01T06:12:40.476Z,95275.00
2023-06-01T06:13:45.738Z,95273.00
2023-06-01T06:14:40.943Z,95275.00
2023-06-01T06:15:39.362Z,95277.00
2023-06-01T06:16:40.166Z,95277.00
2023-06-01T06:17:54.695Z,95277.00
2023-06-01T06:18:40.322Z,95279.00
2023-06-01T06:19:42.777Z,95275.00
2023-06-01T06:20:39.362Z,95275.00
2023-06-01T06:21:39.560Z,95273.00
2023-06-01T06:22:39.193Z,95273.00
2023-06-01T06:23:55.126Z,95273.00
2023-06-01T06:24:40.413Z,95269.00
2023-06-01T06:25:39.156Z,95271.00
2023-06-01T06:26:39.203Z,95273.00
2023-06-01T06:27:39.393Z,95271.00
2023-06-01T06:28:39.636Z,95273.00
2023-06-01T06:29:39.472Z,95271.00
2023-06-01T06:30:39.278Z,95275.00
2023-06-01T06:31:46.971Z,95273.00
2023-06-01T06:32:39.461Z,95275.00
2023-06-01T06:33:39.497Z,95273.00
2023-06-01T06:34:39.508Z,95273.00
2023-06-01T06:35:39.666Z,95273.00
2023-06-01T06:36:39.553Z,95273.00
2023-06-01T06:37:39.526Z,95271.00
2023-06-01T06:38:39.809Z,95271.00
2023-06-01T06:39:39.600Z,95271.00
2023-06-01T06:40:39.667Z,95269.00
2023-06-01T06:41:39.386Z,95269.00
2023-06-01T06:42:39.277Z,95267.00
2023-06-01T06:43:46.804Z,95267.00
2023-06-01T06:44:54.950Z,95261.00
2023-06-01T06:45:42.408Z,95267.00
2023-06-01T06:46:39.363Z,95265.00
2023-06-01T06:47:54.879Z,95263.00
2023-06-01T06:48:39.500Z,95263.00
2023-06-01T06:50:42.706Z,95261.00
2023-06-01T06:52:42.483Z,95259.00
2023-06-01T06:53:47.062Z,95259.00
2023-06-01T06:54:42.548Z,95257.00
2023-06-01T06:55:39.366Z,95257.00
2023-06-01T06:57:42.447Z,95255.00
2023-06-01T06:58:39.468Z,95255.00
2023-06-01T06:59:39.302Z,95257.00
2023-06-01T07:00:39.048Z,95255.00
2023-06-01T07:01:54.852Z,95253.00
2023-06-01T07:02:39.288Z,95249.00
2023-06-01T07:03:39.516Z,95249.00
2023-06-01T07:04:39.184Z,95247.00
2023-06-01T07:05:39.569Z,95249.00
2023-06-01T07:06:39.181Z,95245.00
2023-06-01T07:07:39.358Z,95244.00
2023-06-01T07:09:39.179Z,95244.00
2023-06-01T07:10:39.266Z,95244.00
2023-06-01T07:11:39.186Z,95245.00
2023-06-01T07:12:39.178Z,95245.00
2023-06-01T07:13:39.637Z,95244.00
2023-06-01T07:14:39.007Z,95244.00
2023-06-01T07:15:39.014Z,95242.00
2023-06-01T07:16:39.169Z,95244.00
2023-06-01T07:17:39.205Z,95244.00
2023-06-01T07:18:39.603Z,95244.00
2023-06-01T07:19:42.412Z,95244.00
2023-06-01T07:20:39.229Z,95242.00
2023-06-01T07:21:39.132Z,95242.00
2023-06-01T07:22:39.170Z,95242.00
2023-06-01T07:23:39.847Z,95238.00
2023-06-01T07:24:38.886Z,95236.00
2023-06-01T07:25:38.863Z,95238.00
2023-06-01T07:26:39.847Z,95236.00
2023-06-01T07:28:38.848Z,95236.00
2023-06-01T07:29:46.238Z,95236.00
2023-06-01T07:30:38.862Z,95238.00
2023-06-01T07:31:38.841Z,95232.00
2023-06-01T07:32:39.240Z,95232.00
2023-06-01T07:33:38.916Z,95232.00
2023-06-01T07:34:38.803Z,95230.00
2023-06-01T07:35:38.799Z,95226.00
2023-06-01T07:36:39.792Z,95230.00
2023-06-01T07:37:38.859Z,95228.00
2023-06-01T07:38:42.147Z,95224.00
2023-06-01T07:39:38.769Z,95222.00
2023-06-01T07:40:38.770Z,95224.00
2023-06-01T07:41:38.752Z,95220.00
2023-06-01T07:42:38.866Z,95220.00
2023-06-01T07:43:38.855Z,95218.00
2023-06-01T07:44:38.732Z,95218.00
2023-06-01T07:45:38.734Z,95216.00
2023-06-01T07:46:39.934Z,95212.00
2023-06-01T07:47:39.865Z,95214.00
2023-06-01T07:48:38.852Z,95210.00
2023-06-01T07:49:38.694Z,95208.00
2023-06-01T07:50:38.698Z,95212.00
2023-06-01T07:51:38.679Z,95212.00
2023-06-01T07:52:38.675Z,95210.00
2023-06-01T07:53:38.857Z,95208.00
2023-06-01T07:54:38.688Z,95206.00
2023-06-01T07:55:38.874Z,95204.00
2023-06-01T07:56:38.665Z,95206.00
2023-06-01T07:57:38.661Z,95202.00
2023-06-01T07:58:46.252Z,95204.00
2023-06-01T07:59:38.663Z,95202.00
2023-06-01T08:00:38.644Z,95202.00
2023-06-01T08:01:41.833Z,95198.00
2023-06-01T08:03:11.019Z,95198.00
2023-06-01T08:03:38.862Z,95198.00
2023-06-01T08:04:38.623Z,95195.00
2023-06-01T08:05:41.870Z,95193.00
2023-06-01T08:06:38.858Z,95193.00
2023-06-01T08:07:38.590Z,95193.00
2023-06-01T08:08:38.860Z,95193.00
2023-06-01T08:09:38.898Z,95195.00
2023-06-01T08:10:38.580Z,95193.00
2023-06-01T08:11:38.859Z,95193.00
2023-06-01T08:12:38.565Z,95189.00
2023-06-01T08:13:38.568Z,95189.00
2023-06-01T08:14:38.557Z,95191.00
2023-06-01T08:15:38.548Z,95189.00
2023-06-01T08:16:46.286Z,95189.00
2023-06-01T08:17:38.653Z,95191.00
2023-06-01T08:18:38.532Z,95189.00
2023-06-01T08:19:38.526Z,95187.00
2023-06-01T08:20:38.552Z,95185.00
2023-06-01T08:21:38.944Z,95185.00
2023-06-01T08:22:38.502Z,95185.00
2023-06-01T08:23:38.494Z,95183.00
2023-06-01T08:24:38.528Z,95189.00
2023-06-01T08:25:38.484Z,95183.00
2023-06-01T08:26:38.874Z,95185.00
2023-06-01T08:27:38.485Z,95177.00
2023-06-01T08:28:38.456Z,95179.00
2023-06-01T08:29:42.801Z,95177.00
2023-06-01T08:30:38.451Z,95179.00
2023-06-01T08:31:38.932Z,95183.00
2023-06-01T08:32:38.452Z,95179.00
2023-06-01T08:33:38.427Z,95179.00
2023-06-01T08:34:38.436Z,95181.00
2023-06-01T08:36:37.882Z,95179.00
2023-06-01T08:37:38.407Z,95183.00
2023-06-01T08:38:38.386Z,95181.00
2023-06-01T08:39:38.383Z,95181.00
2023-06-01T08:40:41.588Z,95181.00
2023-06-01T08:41:38.383Z,95181.00
2023-06-01T08:42:38.369Z,95181.00
2023-06-01T08:43:38.404Z,95179.00
2023-06-01T08:44:38.351Z,95179.00
2023-06-01T08:46:10.133Z,95177.00
2023-06-01T08:46:38.419Z,95177.00
2023-06-01T08:47:38.377Z,95177.00
2023-06-01T08:48:38.324Z,95167.00
2023-06-01T08:49:38.319Z,95175.00
2023-06-01T08:50:38.306Z,95167.00
2023-06-01T08:51:38.377Z,95167.00
2023-06-01T08:52:38.287Z,95165.00
2023-06-01T08:53:38.377Z,95167.00
2023-06-01T08:54:39.274Z,95175.00
2023-06-01T08:55:38.269Z,95165.00
2023-06-01T08:56:38.258Z,95175.00
2023-06-01T08:57:41.451Z,95165.00
2023-06-01T08:58:38.260Z,95165.00
2023-06-01T08:59:38.232Z,95167.00
2023-06-01T09:00:38.243Z,95165.00
2023-06-01T09:01:38.282Z,95165.00
2023-06-01T09:02:38.242Z,95161.00
2023-06-01T09:03:38.271Z,95159.00
2023-06-01T09:04:38.194Z,95159.00
2023-06-01T09:05:38.192Z,95159.00
2023-06-01T09:06:38.179Z,95155.00
2023-06-01T09:07:38.177Z,95155.00
2023-06-01T09:08:38.222Z,95153.00
2023-06-01T09:09:38.273Z,95153.00
2023-06-01T09:10:38.160Z,95151.00
2023-06-01T09:11:38.151Z,95149.00
2023-06-01T09:12:38.150Z,95147.00
2023-06-01T09:13:38.389Z,95151.00
2023-06-01T09:14:38.150Z,95151.00
2023-06-01T09:15:38.122Z,95149.00
2023-06-01T09:16:38.224Z,95149.00
2023-06-01T09:17:38.386Z,95145.00
2023-06-01T09:18:38.390Z,95147.00
2023-06-01T09:19:38.107Z,95147.00
2023-06-01T09:20:38.098Z,95145.00
2023-06-01T09:21:38.125Z,95145.00
2023-06-01T09:22:38.120Z,95145.00
2023-06-01T09:23:38.392Z,95145.00
2023-06-01T09:24:38.391Z,95145.00
2023-06-01T09:25:38.196Z,95142.00
2023-06-01T09:26:38.249Z,95140.00
2023-06-01T09:27:38.266Z,95142.00
2023-06-01T09:28:38.399Z,95144.00
2023-06-01T09:29:41.595Z,95138.00
2023-06-01T09:30:38.343Z,95140.00
2023-06-01T09:31:45.743Z,95138.00
2023-06-01T09:32:38.346Z,95138.00
2023-06-01T09:33:38.315Z,95134.00
2023-06-01T09:34:38.495Z,95136.00
2023-06-01T09:35:45.738Z,95132.00
2023-06-01T09:36:41.616Z,95132.00
2023-06-01T09:37:42.532Z,95132.00
2023-06-01T09:38:38.279Z,95136.00
2023-06-01T09:39:41.478Z,95136.00
2023-06-01T09:40:38.563Z,95134.00
2023-06-01T09:41:38.422Z,95134.00
2023-06-01T09:42:38.266Z,95134.00
2023-06-01T09:43:38.405Z,95132.00
2023-06-01T09:44:38.286Z,95132.00
2023-06-01T09:45:38.234Z,95132.00
2023-06-01T09:46:38.275Z,95126.00
2023-06-01T09:47:38.261Z,95128.00
2023-06-01T09:48:38.627Z,95126.00
2023-06-01T09:49:46.687Z,95126.00
2023-06-01T09:50:38.203Z,95130.00
2023-06-01T09:51:38.189Z,95128.00
2023-06-01T09:52:45.666Z,95128.00
2023-06-01T09:53:38.207Z,95126.00
2023-06-01T09:54:38.170Z,95128.00
2023-06-01T09:55:41.379Z,95128.00
2023-06-01T09:56:38.164Z,95124.00
2023-06-01T09:57:38.174Z,95124.00
2023-06-01T09:58:41.330Z,95122.00
2023-06-01T09:59:38.407Z,95122.00
2023-06-01T10:00:38.272Z,95122.00
2023-06-01T10:01:38.157Z,95120.00
2023-06-01T10:02:38.210Z,95116.00
2023-06-01T10:03:38.270Z,95116.00
2023-06-01T10:04:38.098Z,95114.00
2023-06-01T10:05:38.100Z,95116.00
2023-06-01T10:06:38.104Z,95110.00
2023-06-01T10:07:38.141Z,95108.00
2023-06-01T10:08:38.410Z,95110.00
2023-06-01T10:09:38.402Z,95106.00
2023-06-01T10:10:38.278Z,95105.00
2023-06-01T10:11:38.345Z,95103.00
2023-06-01T10:12:45.732Z,95100.00
2023-06-01T10:13:38.373Z,95100.00
2023-06-01T10:14:38.458Z,95098.00
2023-06-01T10:15:38.351Z,95098.00
2023-06-01T10:16:40.420Z,95098.00
2023-06-01T10:17:39.438Z,95098.00
2023-06-01T10:19:38.321Z,95097.00
2023-06-01T10:20:38.370Z,95095.00
2023-06-01T10:21:38.348Z,95097.00
2023-06-01T10:22:38.309Z,95091.00
2023-06-01T10:23:45.874Z,95089.00
2023-06-01T10:24:38.293Z,95089.00
2023-06-01T10:25:39.271Z,95089.00
2023-06-01T10:26:38.300Z,95085.00
2023-06-01T10:27:38.543Z,95085.00
2023-06-01T10:28:38.441Z,95083.00
2023-06-01T10:29:38.277Z,95089.00
2023-06-01T10:30:38.243Z,95087.00
2023-06-01T10:31:38.330Z,95089.00
2023-06-01T10:32:38.368Z,95085.00
2023-06-01T10:33:38.415Z,95085.00
2023-06-01T10:34:38.237Z,95087.00
2023-06-01T10:35:38.178Z,95087.00
2023-06-01T10:36:38.418Z,95083.00
2023-06-01T10:37:38.170Z,95081.00
2023-06-01T10:38:38.163Z,95083.00
2023-06-01T10:39:39.963Z,95079.00
2023-06-01T10:40:38.156Z,95081.00
2023-06-01T10:41:38.153Z,95077.00
2023-06-01T10:42:38.204Z,95075.00
2023-06-01T10:43:38.145Z,95077.00
2023-06-01T10:44:38.422Z,95075.00
2023-06-01T10:45:38.329Z,95073.00
2023-06-01T10:46:40.227Z,95075.00
2023-06-01T10:47:38.146Z,95071.00
2023-06-01T10:48:38.090Z,95073.00
2023-06-01T10:49:38.469Z,95073.00
2023-06-01T10:50:38.079Z,95071.00
2023-06-01T10:51:38.077Z,95069.00
2023-06-01T10:52:38.064Z,95067.00
2023-06-01T10:53:38.053Z,95067.00
2023-06-01T10:54:38.076Z,95067.00
2023-06-01T10:55:38.071Z,95063.00
2023-06-01T10:56:38.043Z,95067.00
2023-06-01T10:57:38.034Z,95065.00
2023-06-01T10:58:38.027Z,95065.00
2023-06-01T10:59:38.031Z,95063.00
2023-06-01T11:00:38.056Z,95057.00
2023-06-01T11:01:38.043Z,95061.00
2023-06-01T11:02:38.008Z,95063.00
2023-06-01T11:03:38.076Z,95055.00
2023-06-01T11:04:38.576Z,95057.00
2023-06-01T11:05:38.001Z,95057.00
2023-06-01T11:06:38.466Z,95059.00
2023-06-01T11:07:38.001Z,95059.00
2023-06-01T11:08:38.453Z,95059.00
2023-06-01T11:09:37.951Z,95055.00
2023-06-01T11:10:37.942Z,95057.00
2023-06-01T11:11:37.937Z,95055.00
2023-06-01T11:12:37.926Z,95055.00
2023-06-01T11:13:37.986Z,95053.00
2023-06-01T11:14:37.946Z,95051.00
2023-06-01T11:15:37.975Z,95053.00
2023-06-01T11:16:37.997Z,95051.00
2023-06-01T11:17:37.915Z,95051.00
2023-06-01T11:18:37.954Z,95048.00
2023-06-01T11:19:37.895Z,95046.00
2023-06-01T11:20:37.921Z,95042.00
2023-06-01T11:21:37.989Z,95042.00
2023-06-01T11:22:38.093Z,95044.00
2023-06-01T11:23:37.859Z,95040.00
2023-06-01T11:24:37.863Z,95038.00
2023-06-01T11:25:37.835Z,95038.00
2023-06-01T11:26:37.833Z,95036.00
2023-06-01T11:27:37.825Z,95034.00
2023-06-01T11:28:37.963Z,95034.00
2023-06-01T11:29:37.802Z,95034.00
2023-06-01T11:30:37.956Z,95030.00
2023-06-01T11:31:37.822Z,95028.00
2023-06-01T11:32:37.824Z,95028.00
2023-06-01T11:33:37.771Z,95028.00
2023-06-01T11:34:37.774Z,95024.00
2023-06-01T11:35:37.957Z,95026.00
2023-06-01T11:36:37.757Z,95026.00
2023-06-01T11:37:37.742Z,95022.00
2023-06-01T11:38:39.698Z,95022.00
2023-06-01T11:39:37.727Z,95020.00
2023-06-01T11:40:39.969Z,95020.00
2023-06-01T11:41:37.811Z,95020.00
2023-06-01T11:42:37.703Z,95016.00
2023-06-01T11:43:37.967Z,95014.00
2023-06-01T11:44:37.715Z,95012.00
2023-06-01T11:45:37.945Z,95012.00
2023-06-01T11:46:37.680Z,95008.00
2023-06-01T11:47:37.676Z,95006.00
2023-06-01T11:48:37.660Z,95004.00
2023-06-01T11:49:37.653Z,95012.00
2023-06-01T11:50:37.946Z,95004.00
2023-06-01T11:51:37.639Z,95004.00
2023-06-01T11:52:37.643Z,95012.00
2023-06-01T11:53:37.623Z,95006.00
2023-06-01T11:54:37.663Z,95004.00
2023-06-01T11:55:37.610Z,95006.00